createdAt,value
2019-02-17T00:01:09.540Z,11.10
2019-02-17T00:03:39.028Z,11.10
2019-02-17T00:06:08.527Z,11.10
2019-02-17T00:08:38.062Z,11.10
2019-02-17T00:11:07.590Z,11.10
2019-02-17T00:13:37.063Z,11.10
2019-02-17T00:16:06.559Z,11.10
2019-02-17T00:18:36.317Z,11.10
2019-02-17T00:21:06.014Z,11.10
2019-02-17T00:23:35.487Z,11.10
2019-02-17T00:26:04.993Z,11.10
2019-02-17T00:28:34.553Z,11.10
2019-02-17T00:31:04.040Z,11.10
2019-02-17T00:33:33.546Z,11.10
2019-02-17T00:36:03.029Z,11.10
2019-02-17T00:38:32.550Z,11.10
2019-02-17T00:41:02.038Z,11.10
2019-02-17T00:43:31.529Z,11.10
2019-02-17T00:46:01.028Z,11.10
2019-02-17T00:48:30.550Z,11.10
2019-02-17T00:51:00.012Z,11.10
2019-02-17T00:53:29.572Z,11.10
2019-02-17T00:55:59.089Z,11.10
2019-02-17T00:58:28.546Z,11.10
2019-02-17T01:00:58.030Z,11.00
2019-02-17T01:03:27.522Z,11.10
2019-02-17T01:05:57.328Z,11.00
2019-02-17T01:08:26.807Z,11.00
2019-02-17T01:10:56.347Z,11.00
2019-02-17T01:13:25.885Z,11.00
2019-02-17T01:15:55.382Z,11.00
2019-02-17T01:18:24.895Z,11.00
2019-02-17T01:20:54.697Z,11.00
2019-02-17T01:23:27.037Z,11.00
2019-02-17T01:25:56.555Z,11.00
2019-02-17T01:28:26.103Z,11.00
2019-02-17T01:30:55.605Z,11.00
2019-02-17T01:33:25.090Z,11.00
2019-02-17T01:35:54.649Z,11.00
2019-02-17T01:38:27.218Z,11.00
2019-02-17T01:40:56.747Z,11.00
2019-02-17T01:43:26.204Z,11.00
2019-02-17T01:45:55.659Z,11.00
2019-02-17T01:48:25.240Z,11.00
2019-02-17T01:50:54.732Z,11.00
2019-02-17T01:53:24.124Z,11.00
2019-02-17T01:55:53.701Z,11.00
2019-02-17T01:58:23.225Z,11.00
2019-02-17T02:00:52.738Z,11.00
2019-02-17T02:03:22.199Z,11.00
2019-02-17T02:05:51.668Z,11.00
2019-02-17T02:08:21.187Z,11.00
2019-02-17T02:10:50.727Z,11.00
2019-02-17T02:13:20.280Z,11.00
2019-02-17T02:15:49.753Z,11.00
2019-02-17T02:18:19.232Z,11.00
2019-02-17T02:20:48.708Z,10.90
2019-02-17T02:23:18.348Z,10.90
2019-02-17T02:25:47.866Z,10.90
2019-02-17T02:30:48.562Z,10.90
2019-02-17T02:33:18.067Z,10.90
2019-02-17T02:35:47.569Z,10.90
2019-02-17T02:38:17.076Z,10.90
2019-02-17T02:40:46.858Z,10.90
2019-02-17T02:43:16.323Z,10.90
2019-02-17T02:45:45.819Z,10.90
2019-02-17T02:48:15.267Z,10.90
2019-02-17T02:50:44.789Z,10.90
2019-02-17T02:53:14.292Z,10.90
2019-02-17T02:55:44.104Z,10.90
2019-02-17T02:58:13.690Z,10.90
2019-02-17T03:00:43.254Z,10.90
2019-02-17T03:03:13.070Z,10.90
2019-02-17T03:05:51.568Z,10.90
2019-02-17T03:08:21.072Z,10.90
2019-02-17T03:10:50.583Z,10.90
2019-02-17T03:13:20.013Z,10.90
2019-02-17T03:15:49.410Z,10.90
2019-02-17T03:18:18.884Z,10.90
2019-02-17T03:20:48.341Z,10.90
2019-02-17T03:23:17.795Z,10.90
2019-02-17T03:25:47.212Z,10.90
2019-02-17T03:28:17.057Z,10.90
2019-02-17T03:30:46.889Z,10.90
2019-02-17T03:33:16.364Z,10.90
2019-02-17T03:35:45.898Z,10.90
2019-02-17T03:38:15.419Z,10.90
2019-02-17T03:40:44.893Z,10.80
2019-02-17T03:43:14.384Z,10.80
2019-02-17T03:45:44.157Z,10.80
2019-02-17T03:48:13.624Z,10.80
2019-02-17T03:50:43.197Z,10.80
2019-02-17T03:53:13.014Z,10.80
2019-02-17T03:55:42.471Z,10.80
2019-02-17T03:58:11.957Z,10.80
2019-02-17T04:00:41.425Z,10.80
2019-02-17T04:03:10.926Z,10.80
2019-02-17T04:05:40.405Z,10.80
2019-02-17T04:08:09.931Z,10.80
2019-02-17T04:10:39.441Z,10.80
2019-02-17T04:13:08.901Z,10.80
2019-02-17T04:15:38.384Z,10.80
2019-02-17T04:18:07.872Z,10.80
2019-02-17T04:20:37.383Z,10.80
2019-02-17T04:23:06.840Z,10.80
2019-02-17T04:25:36.327Z,10.80
2019-02-17T04:28:05.831Z,10.80
2019-02-17T04:30:35.362Z,10.80
2019-02-17T04:33:04.740Z,10.80
2019-02-17T04:35:34.209Z,10.80
2019-02-17T04:38:04.025Z,10.70
2019-02-17T04:40:33.822Z,10.80
2019-02-17T04:43:03.333Z,10.80
2019-02-17T04:45:32.886Z,10.80
2019-02-17T04:48:02.419Z,10.80
2019-02-17T04:50:31.950Z,10.80
2019-02-17T04:53:01.393Z,10.80
2019-02-17T04:55:30.842Z,10.70
2019-02-17T04:58:00.296Z,10.70
2019-02-17T05:00:39.869Z,10.70
2019-02-17T05:03:00.889Z,10.70
2019-02-17T05:05:30.373Z,10.70
2019-02-17T05:07:59.869Z,10.70
2019-02-17T05:10:29.315Z,10.70
2019-02-17T05:12:58.618Z,10.70
2019-02-17T05:15:29.263Z,10.70
2019-02-17T05:18:00.868Z,10.70
2019-02-17T05:20:33.373Z,10.70
2019-02-17T05:23:07.849Z,10.70
2019-02-17T05:25:37.278Z,10.70
2019-02-17T05:28:06.864Z,10.70
2019-02-17T05:30:36.380Z,10.70
2019-02-17T05:33:05.911Z,10.70
2019-02-17T05:35:35.423Z,10.70
2019-02-17T05:38:04.898Z,10.70
2019-02-17T05:40:36.434Z,10.70
2019-02-17T05:43:05.587Z,10.70
2019-02-17T05:45:35.117Z,10.70
2019-02-17T05:48:04.700Z,10.70
2019-02-17T05:50:34.235Z,10.70
2019-02-17T05:53:03.663Z,10.70
2019-02-17T05:55:33.080Z,10.60
2019-02-17T05:58:02.598Z,10.60
2019-02-17T06:00:34.579Z,10.70
2019-02-17T06:03:05.414Z,10.70
2019-02-17T06:05:35.279Z,10.70
2019-02-17T06:08:04.828Z,10.60
2019-02-17T06:10:34.336Z,10.60
2019-02-17T06:13:04.615Z,10.60
2019-02-17T06:15:34.195Z,10.60
2019-02-17T06:18:03.767Z,10.60
2019-02-17T06:20:33.538Z,10.60
2019-02-17T06:23:03.111Z,10.60
2019-02-17T06:25:32.594Z,10.60
2019-02-17T06:28:02.059Z,10.60
2019-02-17T06:30:32.660Z,10.60
2019-02-17T06:33:02.131Z,10.60
2019-02-17T06:35:31.717Z,10.60
2019-02-17T06:38:01.338Z,10.60
2019-02-17T06:40:31.199Z,10.60
2019-02-17T06:43:01.774Z,10.60
2019-02-17T06:45:31.459Z,10.60
2019-02-17T06:48:01.321Z,10.60
2019-02-17T06:50:32.893Z,10.60
2019-02-17T06:53:02.755Z,10.60
2019-02-17T06:55:43.271Z,10.60
2019-02-17T06:58:12.801Z,10.60
2019-02-17T07:00:50.940Z,10.60
2019-02-17T07:03:20.656Z,10.60
2019-02-17T07:06:04.529Z,10.60
2019-02-17T07:08:34.028Z,10.60
2019-02-17T07:11:03.684Z,10.60
2019-02-17T07:13:33.123Z,10.60
2019-02-17T07:16:02.732Z,10.60
2019-02-17T07:18:32.690Z,10.60
2019-02-17T07:21:47.904Z,10.60
2019-02-17T07:24:29.961Z,10.60
2019-02-17T07:27:11.129Z,10.60
2019-02-17T07:29:52.796Z,10.60
2019-02-17T07:32:33.706Z,10.60
2019-02-17T07:35:15.745Z,10.60
2019-02-17T07:41:16.456Z,10.70
2019-02-17T07:43:58.416Z,10.70
2019-02-17T07:46:39.740Z,10.70
2019-02-17T07:49:20.757Z,10.70
2019-02-17T07:52:02.334Z,10.70
2019-02-17T07:54:43.756Z,10.80
2019-02-17T07:57:25.511Z,10.80
2019-02-17T08:00:07.195Z,10.80
2019-02-17T08:05:32.746Z,10.90
2019-02-17T08:08:14.115Z,10.90
2019-02-17T08:11:03.772Z,10.90
2019-02-17T08:16:21.053Z,11.00
2019-02-17T08:19:02.545Z,11.00
2019-02-17T08:21:43.740Z,11.00
2019-02-17T08:28:03.332Z,11.10
2019-02-17T08:30:44.390Z,11.10
2019-02-17T08:33:26.079Z,11.20
2019-02-17T08:36:26.156Z,11.20
2019-02-17T08:39:07.783Z,11.20
2019-02-17T08:41:49.314Z,11.30
2019-02-17T08:44:30.708Z,11.30
2019-02-17T08:47:12.279Z,11.30
2019-02-17T08:49:53.704Z,11.30
2019-02-17T08:55:45.692Z,11.40
2019-02-17T08:58:27.265Z,11.40
2019-02-17T09:01:08.809Z,11.50
2019-02-17T09:06:33.454Z,11.50
2019-02-17T09:09:15.086Z,11.50
2019-02-17T09:11:56.217Z,11.50
2019-02-17T09:17:56.522Z,11.60
2019-02-17T09:20:38.013Z,11.60
2019-02-17T09:23:18.812Z,11.60
2019-02-17T09:32:25.933Z,11.70
2019-02-17T09:37:55.818Z,11.80
2019-02-17T09:43:56.615Z,11.80
2019-02-17T09:46:37.841Z,11.80
2019-02-17T09:49:19.516Z,11.80
2019-02-17T09:52:00.950Z,11.90
2019-02-17T09:54:42.779Z,11.90
2019-02-17T10:06:43.879Z,11.90
2019-02-17T10:12:30.452Z,11.90
2019-02-17T10:15:11.809Z,12.00
2019-02-17T10:17:52.447Z,12.00
2019-02-17T10:20:32.953Z,12.20
2019-02-17T10:23:14.138Z,12.70
2019-02-17T10:25:56.532Z,13.00
2019-02-17T10:28:42.356Z,13.40
2019-02-17T10:31:20.623Z,13.90
2019-02-17T10:34:01.527Z,14.20
2019-02-17T10:36:42.948Z,14.50
2019-02-17T10:39:24.262Z,14.80
2019-02-17T10:42:05.956Z,15.10
2019-02-17T10:47:39.647Z,15.50
2019-02-17T10:50:27.951Z,15.70
2019-02-17T10:56:22.099Z,16.00
2019-02-17T11:02:21.974Z,16.40
2019-02-17T11:08:25.629Z,16.60
2019-02-17T11:12:00.407Z,16.70
2019-02-17T11:14:21.845Z,16.80
2019-02-17T11:17:11.929Z,16.90
2019-02-17T11:20:00.450Z,17.00
2019-02-17T11:26:08.731Z,17.20
2019-02-17T11:34:44.266Z,17.40
2019-02-17T11:37:45.209Z,17.50
2019-02-17T11:40:26.296Z,17.50
2019-02-17T11:43:07.937Z,17.60
2019-02-17T11:52:22.288Z,17.80
2019-02-17T12:13:41.607Z,18.20
2019-02-17T12:19:28.241Z,18.30
2019-02-17T12:34:48.196Z,18.60
2019-02-17T12:37:29.753Z,18.60
2019-02-17T12:40:11.299Z,18.70
2019-02-17T12:42:52.706Z,18.80
2019-02-17T12:48:40.792Z,18.80
2019-02-17T12:51:10.274Z,18.90
2019-02-17T12:53:39.932Z,18.90
2019-02-17T12:56:09.415Z,19.00
2019-02-17T12:58:41.832Z,19.00
2019-02-17T13:01:14.532Z,19.00
2019-02-17T13:03:44.192Z,19.00
2019-02-17T13:06:13.632Z,19.10
2019-02-17T13:08:43.035Z,19.10
2019-02-17T13:11:12.506Z,19.10
2019-02-17T13:14:02.481Z,19.10
2019-02-17T13:16:32.727Z,19.20
2019-02-17T13:19:02.042Z,19.20
2019-02-17T13:21:31.828Z,19.20
2019-02-17T13:24:01.451Z,19.30
2019-02-17T13:26:30.957Z,19.30
2019-02-17T13:29:00.810Z,19.30
2019-02-17T13:31:39.459Z,19.30
2019-02-17T13:34:09.160Z,19.30
2019-02-17T13:36:38.806Z,19.40
2019-02-17T13:39:08.435Z,19.40
2019-02-17T13:41:37.945Z,19.40
2019-02-17T13:48:02.278Z,19.50
2019-02-17T13:51:35.883Z,19.50
2019-02-17T13:54:35.497Z,19.50
2019-02-17T13:57:53.319Z,19.60
2019-02-17T14:01:32.563Z,19.60
2019-02-17T14:04:39.611Z,19.60
2019-02-17T14:07:39.449Z,19.70
2019-02-17T14:13:46.498Z,19.80
2019-02-17T14:16:59.998Z,19.80
2019-02-17T14:20:13.941Z,19.90
2019-02-17T14:23:07.396Z,19.90
2019-02-17T14:25:38.014Z,19.90
2019-02-17T14:28:07.534Z,20.00
2019-02-17T14:30:37.142Z,20.00
2019-02-17T14:33:06.652Z,20.00
2019-02-17T14:35:36.173Z,20.00
2019-02-17T14:38:05.739Z,20.00
2019-02-17T14:43:04.304Z,20.10
2019-02-17T14:45:33.905Z,20.00
2019-02-17T14:48:03.381Z,20.00
2019-02-17T14:50:33.342Z,20.10
2019-02-17T14:53:02.983Z,20.10
2019-02-17T14:55:32.611Z,20.10
2019-02-17T14:58:05.446Z,20.10
2019-02-17T15:00:34.004Z,20.10
2019-02-17T15:03:04.592Z,20.10
2019-02-17T15:05:34.600Z,20.10
2019-02-17T15:08:04.321Z,20.10
2019-02-17T15:10:33.826Z,20.20
2019-02-17T15:13:03.320Z,20.20
2019-02-17T15:15:32.728Z,20.20
2019-02-17T15:18:02.731Z,20.20
2019-02-17T15:20:32.230Z,20.20
2019-02-17T15:23:01.692Z,20.20
2019-02-17T15:25:31.253Z,20.20
2019-02-17T15:28:00.787Z,20.30
2019-02-17T15:30:30.312Z,20.30
2019-02-17T15:33:03.914Z,20.30
2019-02-17T15:35:31.712Z,20.30
2019-02-17T15:38:01.287Z,20.30
2019-02-17T15:40:31.156Z,20.30
2019-02-17T15:43:00.711Z,20.30
2019-02-17T15:45:30.481Z,20.20
2019-02-17T15:47:59.930Z,20.10
2019-02-17T15:50:29.424Z,20.10
2019-02-17T15:52:59.119Z,20.20
2019-02-17T15:55:28.611Z,20.20
2019-02-17T15:57:58.534Z,20.20
2019-02-17T16:00:28.107Z,20.30
2019-02-17T16:02:57.655Z,20.30
2019-02-17T16:05:27.572Z,20.30
2019-02-17T16:07:57.005Z,20.30
2019-02-17T16:10:27.676Z,20.40
2019-02-17T16:12:57.301Z,20.40
2019-02-17T16:15:29.728Z,20.40
2019-02-17T16:17:59.302Z,20.40
2019-02-17T16:20:28.821Z,20.50
2019-02-17T16:22:58.331Z,20.50
2019-02-17T16:25:27.843Z,20.50
2019-02-17T16:27:57.294Z,20.50
2019-02-17T16:30:26.872Z,20.60
2019-02-17T16:32:56.674Z,20.60
2019-02-17T16:35:26.257Z,20.60
2019-02-17T16:39:06.775Z,20.60
2019-02-17T16:41:47.594Z,20.50
2019-02-17T16:44:29.446Z,20.20
2019-02-17T16:47:10.776Z,19.70
2019-02-17T16:49:52.092Z,19.40
2019-02-17T16:52:32.896Z,19.00
2019-02-17T16:55:14.486Z,18.70
2019-02-17T16:57:56.035Z,18.40
2019-02-17T17:00:37.649Z,18.10
2019-02-17T17:06:08.576Z,17.60
2019-02-17T17:08:50.070Z,17.40
2019-02-17T17:11:30.838Z,17.20
2019-02-17T17:14:12.063Z,17.00
2019-02-17T17:16:53.125Z,16.90
2019-02-17T17:19:34.782Z,16.70
2019-02-17T17:22:16.354Z,16.60
2019-02-17T17:24:57.687Z,16.40
2019-02-17T17:27:41.282Z,16.40
2019-02-17T17:30:21.906Z,16.20
2019-02-17T17:35:47.105Z,16.00
2019-02-17T17:38:28.683Z,16.00
2019-02-17T17:41:10.195Z,15.90
2019-02-17T17:43:51.456Z,15.80
2019-02-17T17:46:33.842Z,15.70
2019-02-17T17:49:19.199Z,15.70
2019-02-17T17:51:58.469Z,15.60
2019-02-17T17:57:25.930Z,15.50
2019-02-17T18:00:09.874Z,15.50
2019-02-17T18:02:51.112Z,15.40
2019-02-17T18:05:32.525Z,15.40
2019-02-17T18:08:13.856Z,15.30
2019-02-17T18:10:55.237Z,15.30
2019-02-17T18:13:36.243Z,15.30
2019-02-17T18:16:17.796Z,15.20
2019-02-17T18:18:59.322Z,15.20
2019-02-17T18:21:40.738Z,15.10
2019-02-17T18:24:22.100Z,15.10
2019-02-17T18:27:03.779Z,15.10
2019-02-17T18:29:46.279Z,15.10
2019-02-17T18:32:27.912Z,15.00
2019-02-17T18:35:18.785Z,15.00
2019-02-17T18:37:53.052Z,14.90
2019-02-17T18:40:44.455Z,14.90
2019-02-17T18:43:18.143Z,14.90
2019-02-17T18:45:59.679Z,14.80
2019-02-17T18:48:42.324Z,14.80
2019-02-17T18:51:23.789Z,14.80
2019-02-17T18:54:04.729Z,14.80
2019-02-17T18:56:46.519Z,14.70
2019-02-17T19:02:12.477Z,14.70
2019-02-17T19:04:54.176Z,14.70
2019-02-17T19:07:35.553Z,14.60
2019-02-17T19:10:17.271Z,14.60
2019-02-17T19:12:58.101Z,14.60
2019-02-17T19:15:39.320Z,14.60
2019-02-17T19:18:20.199Z,14.60
2019-02-17T19:21:01.780Z,14.50
2019-02-17T19:23:43.267Z,14.50
2019-02-17T19:26:24.954Z,14.50
2019-02-17T19:29:06.264Z,14.40
2019-02-17T19:31:47.812Z,14.40
2019-02-17T19:34:28.667Z,14.40
2019-02-17T19:37:10.294Z,14.40
2019-02-17T19:39:51.675Z,14.30
2019-02-17T19:42:33.337Z,14.30
2019-02-17T19:45:14.931Z,14.30
2019-02-17T19:47:58.026Z,14.30
2019-02-17T19:50:39.958Z,14.30
2019-02-17T19:53:20.946Z,14.20
2019-02-17T19:56:02.197Z,14.30
2019-02-17T19:58:44.672Z,14.20
2019-02-17T20:01:26.980Z,14.20
2019-02-17T20:07:23.250Z,14.20
2019-02-17T20:10:05.094Z,14.20
2019-02-17T20:12:46.859Z,14.10
2019-02-17T20:15:30.247Z,14.10
2019-02-17T20:18:11.878Z,14.10
2019-02-17T20:20:53.283Z,14.10
2019-02-17T20:23:35.474Z,14.10
2019-02-17T20:26:16.837Z,14.10
2019-02-17T20:28:58.517Z,14.10
2019-02-17T20:31:39.659Z,14.00
2019-02-17T20:34:21.359Z,14.00
2019-02-17T20:37:02.967Z,14.00
2019-02-17T20:39:44.503Z,14.00
2019-02-17T20:42:25.832Z,14.00
2019-02-17T20:45:06.723Z,14.00
2019-02-17T20:47:48.372Z,13.90
2019-02-17T20:50:29.248Z,13.90
2019-02-17T20:53:10.804Z,13.90
2019-02-17T20:55:52.154Z,13.90
2019-02-17T20:58:33.840Z,13.90
2019-02-17T21:01:15.224Z,13.90
2019-02-17T21:03:56.257Z,13.90
2019-02-17T21:06:38.046Z,13.80
2019-02-17T21:09:19.103Z,13.80
2019-02-17T21:12:02.439Z,13.90
2019-02-17T21:14:43.528Z,13.80
2019-02-17T21:17:24.474Z,13.80
2019-02-17T21:22:34.429Z,13.80
2019-02-17T21:25:15.687Z,13.80
2019-02-17T21:27:57.339Z,13.80
2019-02-17T21:30:38.580Z,13.80
2019-02-17T21:33:20.471Z,13.80
2019-02-17T21:36:01.531Z,13.70
2019-02-17T21:38:43.591Z,13.70
2019-02-17T21:41:24.961Z,13.70
2019-02-17T21:44:06.187Z,13.70
2019-02-17T21:46:47.795Z,13.70
2019-02-17T21:49:29.479Z,13.70
2019-02-17T21:52:10.606Z,13.70
2019-02-17T21:54:51.918Z,13.70
2019-02-17T21:57:33.622Z,13.70
2019-02-17T22:00:16.025Z,13.60
2019-02-17T22:02:57.970Z,13.60
2019-02-17T22:05:39.502Z,13.60
2019-02-17T22:08:20.800Z,13.60
2019-02-17T22:11:01.929Z,13.60
2019-02-17T22:13:43.651Z,13.60
2019-02-17T22:16:25.049Z,13.60
2019-02-17T22:19:06.599Z,13.60
2019-02-17T22:21:47.986Z,13.60
2019-02-17T22:24:29.500Z,13.50
2019-02-17T22:27:11.067Z,13.50
2019-02-17T22:29:52.542Z,13.50
2019-02-17T22:32:33.496Z,13.50
2019-02-17T22:35:14.921Z,13.50
2019-02-17T22:37:55.967Z,13.50
2019-02-17T22:40:37.666Z,13.50
2019-02-17T22:43:19.118Z,13.50
2019-02-17T22:46:00.716Z,13.50
2019-02-17T22:48:42.500Z,13.50
2019-02-17T22:51:23.740Z,13.40
2019-02-17T22:54:05.351Z,13.40
2019-02-17T22:56:46.510Z,13.40
2019-02-17T22:59:27.509Z,13.40
2019-02-17T23:02:11.829Z,13.40
2019-02-17T23:04:52.632Z,13.40
2019-02-17T23:07:33.794Z,13.40
2019-02-17T23:10:15.483Z,13.40
2019-02-17T23:15:49.011Z,13.40
2019-02-17T23:18:30.839Z,13.40
2019-02-17T23:21:12.171Z,13.40
2019-02-17T23:23:53.160Z,13.30
2019-02-17T23:26:34.346Z,13.30
2019-02-17T23:29:17.792Z,13.30
2019-02-17T23:31:59.654Z,13.30
2019-02-17T23:34:40.405Z,13.30
2019-02-17T23:37:22.044Z,13.30
2019-02-17T23:40:03.453Z,13.30
2019-02-17T23:42:44.921Z,13.30
2019-02-17T23:45:26.407Z,13.30
2019-02-17T23:48:07.497Z,13.30
2019-02-17T23:50:48.911Z,13.30
2019-02-17T23:53:30.405Z,13.30
2019-02-17T23:56:11.878Z,13.30
2019-02-17T23:58:53.291Z,13.20
